createdAt,value
2018-03-31T00:00:55.560Z,91.33
2018-03-31T00:01:55.540Z,90.80
2018-03-31T00:02:55.531Z,91.38
2018-03-31T00:03:55.509Z,92.32
2018-03-31T00:04:55.496Z,92.51
2018-03-31T00:05:55.481Z,92.66
2018-03-31T00:06:55.469Z,91.28
2018-03-31T00:07:55.459Z,91.80
2018-03-31T00:08:55.442Z,92.27
2018-03-31T00:09:55.434Z,92.08
2018-03-31T00:10:55.415Z,91.99
2018-03-31T00:11:55.403Z,90.66
2018-03-31T00:12:55.387Z,91.71
2018-03-31T00:13:55.374Z,90.85
2018-03-31T00:14:55.354Z,92.37
2018-03-31T00:15:55.339Z,91.42
2018-03-31T00:16:55.326Z,92.51
2018-03-31T00:17:55.315Z,90.66
2018-03-31T00:18:55.294Z,90.28
2018-03-31T00:19:55.287Z,92.85
2018-03-31T00:20:55.265Z,91.71
2018-03-31T00:21:55.257Z,90.85
2018-03-31T00:22:55.244Z,91.33
2018-03-31T00:23:55.222Z,91.71
2018-03-31T00:24:55.208Z,91.61
2018-03-31T00:25:55.202Z,90.37
2018-03-31T00:26:55.182Z,90.85
2018-03-31T00:27:55.170Z,91.33
2018-03-31T00:28:55.157Z,90.99
2018-03-31T00:29:55.136Z,92.66
2018-03-31T00:30:55.123Z,92.32
2018-03-31T00:31:55.107Z,92.46
2018-03-31T00:32:55.100Z,92.08
2018-03-31T00:33:55.083Z,91.52
2018-03-31T00:34:55.062Z,91.80
2018-03-31T00:35:55.051Z,91.04
2018-03-31T00:36:55.034Z,90.94
2018-03-31T00:37:55.018Z,91.52
2018-03-31T00:38:55.065Z,91.13
2018-03-31T00:39:54.998Z,93.60
2018-03-31T00:40:54.976Z,92.18
2018-03-31T00:41:54.961Z,89.80
2018-03-31T00:42:54.948Z,90.94
2018-03-31T00:43:54.939Z,89.71
2018-03-31T00:44:54.928Z,88.47
2018-03-31T00:45:54.904Z,87.34
2018-03-31T00:46:54.889Z,92.37
2018-03-31T00:47:54.876Z,91.23
2018-03-31T00:48:54.867Z,90.00
2018-03-31T00:49:54.853Z,91.33
2018-03-31T00:50:54.855Z,89.52
2018-03-31T00:51:54.819Z,88.19
2018-03-31T00:52:54.810Z,88.81
2018-03-31T00:53:54.790Z,90.14
2018-03-31T00:54:54.783Z,91.28
2018-03-31T00:55:54.761Z,92.37
2018-03-31T00:56:54.744Z,91.71
2018-03-31T00:57:54.740Z,90.80
2018-03-31T00:58:54.723Z,91.66
2018-03-31T00:59:54.709Z,91.09
2018-03-31T01:00:54.686Z,89.28
2018-03-31T01:01:54.679Z,90.52
2018-03-31T01:02:54.658Z,91.28
2018-03-31T01:03:54.650Z,92.23
2018-03-31T01:04:54.627Z,91.99
2018-03-31T01:05:54.617Z,90.05
2018-03-31T01:06:54.600Z,92.37
2018-03-31T01:07:54.593Z,91.61
2018-03-31T01:08:54.571Z,90.85
2018-03-31T01:09:54.558Z,91.42
2018-03-31T01:10:54.592Z,90.90
2018-03-31T01:11:54.529Z,91.47
2018-03-31T01:12:54.518Z,91.28
2018-03-31T01:13:54.503Z,90.90
2018-03-31T01:14:54.492Z,90.99
2018-03-31T01:15:54.470Z,91.19
2018-03-31T01:16:54.455Z,91.47
2018-03-31T01:17:54.441Z,93.70
2018-03-31T01:18:54.434Z,92.61
2018-03-31T01:19:54.413Z,90.80
2018-03-31T01:20:54.398Z,90.99
2018-03-31T01:21:54.382Z,89.76
2018-03-31T01:22:54.371Z,89.47
2018-03-31T01:23:54.354Z,90.14
2018-03-31T01:24:54.339Z,90.99
2018-03-31T01:25:54.327Z,90.90
2018-03-31T01:26:54.311Z,90.71
2018-03-31T01:27:54.306Z,92.04
2018-03-31T01:28:54.289Z,91.56
2018-03-31T01:29:54.266Z,92.51
2018-03-31T01:30:54.262Z,91.85
2018-03-31T01:31:54.238Z,89.86
2018-03-31T01:32:54.223Z,88.53
2018-03-31T01:33:54.214Z,90.80
2018-03-31T01:34:54.197Z,90.71
2018-03-31T01:35:54.184Z,92.23
2018-03-31T01:36:54.166Z,93.08
2018-03-31T01:37:54.158Z,90.42
2018-03-31T01:38:54.138Z,89.47
2018-03-31T01:39:54.129Z,91.75
2018-03-31T01:40:54.114Z,90.71
2018-03-31T01:41:54.113Z,91.28
2018-03-31T01:42:54.080Z,91.28
2018-03-31T01:43:54.066Z,91.38
2018-03-31T01:44:54.050Z,91.28
2018-03-31T01:45:54.043Z,93.18
2018-03-31T01:46:54.022Z,91.99
2018-03-31T01:47:54.005Z,93.94
2018-03-31T01:48:53.997Z,92.04
2018-03-31T01:49:53.977Z,92.42
2018-03-31T01:50:53.967Z,92.51
2018-03-31T01:51:53.961Z,92.99
2018-03-31T01:52:53.938Z,91.85
2018-03-31T01:53:53.918Z,89.86
2018-03-31T01:54:53.904Z,91.75
2018-03-31T01:55:53.889Z,91.09
2018-03-31T01:56:53.875Z,90.23
2018-03-31T01:57:53.866Z,90.76
2018-03-31T01:58:53.844Z,93.56
2018-03-31T01:59:53.831Z,91.61
2018-03-31T02:00:53.813Z,91.19
2018-03-31T02:01:53.804Z,91.38
2018-03-31T02:02:53.784Z,91.38
2018-03-31T02:03:53.771Z,90.99
2018-03-31T02:04:53.755Z,91.33
2018-03-31T02:05:53.740Z,91.61
2018-03-31T02:06:53.725Z,91.61
2018-03-31T02:07:53.711Z,91.33
2018-03-31T02:08:53.704Z,90.09
2018-03-31T02:09:53.680Z,92.28
2018-03-31T02:10:53.665Z,93.32
2018-03-31T02:11:53.650Z,93.04
2018-03-31T02:12:53.640Z,91.61
2018-03-31T02:13:53.619Z,93.04
2018-03-31T02:14:53.607Z,94.08
2018-03-31T02:15:53.592Z,93.80
2018-03-31T02:16:53.586Z,92.66
2018-03-31T02:17:53.560Z,93.89
2018-03-31T02:18:53.545Z,92.94
2018-03-31T02:19:53.537Z,93.51
2018-03-31T02:20:53.514Z,92.66
2018-03-31T02:21:53.502Z,93.32
2018-03-31T02:22:53.486Z,92.09
2018-03-31T02:23:53.469Z,93.60
2018-03-31T02:24:53.454Z,93.41
2018-03-31T02:25:53.442Z,93.41
2018-03-31T02:26:53.433Z,92.33
2018-03-31T02:27:53.409Z,93.08
2018-03-31T02:28:53.400Z,93.41
2018-03-31T02:29:53.380Z,92.94
2018-03-31T02:30:53.369Z,93.99
2018-03-31T02:31:53.356Z,95.03
2018-03-31T02:32:53.338Z,93.84
2018-03-31T02:33:53.324Z,92.52
2018-03-31T02:34:53.309Z,94.27
2018-03-31T02:35:53.288Z,96.36
2018-03-31T02:36:53.283Z,94.46
2018-03-31T02:37:53.258Z,94.08
2018-03-31T02:38:53.250Z,93.75
2018-03-31T02:39:53.230Z,94.98
2018-03-31T02:40:53.211Z,94.32
2018-03-31T02:41:53.200Z,93.56
2018-03-31T02:42:53.189Z,94.23
2018-03-31T02:43:53.167Z,94.42
2018-03-31T02:44:53.150Z,94.23
2018-03-31T02:45:53.136Z,93.75
2018-03-31T02:46:53.123Z,93.27
2018-03-31T02:47:53.107Z,95.27
2018-03-31T02:48:53.090Z,95.07
2018-03-31T02:49:53.076Z,94.32
2018-03-31T02:50:53.064Z,96.97
2018-03-31T02:51:53.045Z,97.07
2018-03-31T02:52:53.030Z,95.55
2018-03-31T02:53:53.012Z,95.17
2018-03-31T02:54:53.003Z,95.27
2018-03-31T02:55:52.982Z,95.46
2018-03-31T02:56:52.967Z,96.22
2018-03-31T02:57:52.954Z,95.36
2018-03-31T02:58:52.943Z,95.65
2018-03-31T02:59:52.927Z,96.22
2018-03-31T03:00:52.912Z,96.69
2018-03-31T03:01:52.895Z,97.92
2018-03-31T03:02:52.879Z,98.11
2018-03-31T03:03:52.861Z,97.83
2018-03-31T03:04:52.847Z,97.45
2018-03-31T03:05:52.838Z,97.17
2018-03-31T03:06:52.820Z,96.88
2018-03-31T03:07:52.804Z,97.26
2018-03-31T03:08:52.787Z,97.55
2018-03-31T03:09:52.768Z,98.11
2018-03-31T03:10:52.758Z,98.78
2018-03-31T03:11:52.744Z,98.11
2018-03-31T03:12:52.721Z,97.83
2018-03-31T03:13:52.708Z,98.40
2018-03-31T03:14:52.690Z,98.40
2018-03-31T03:15:52.681Z,98.21
2018-03-31T03:16:52.660Z,98.30
2018-03-31T03:17:52.652Z,98.16
2018-03-31T03:18:52.629Z,98.16
2018-03-31T03:19:52.615Z,98.49
2018-03-31T03:20:52.600Z,98.78
2018-03-31T03:21:52.587Z,98.82
2018-03-31T03:22:52.579Z,98.44
2018-03-31T03:23:52.559Z,98.35
2018-03-31T03:24:52.545Z,98.40
2018-03-31T03:25:52.532Z,98.54
2018-03-31T03:26:52.509Z,98.49
2018-03-31T03:27:52.503Z,98.63
2018-03-31T03:28:52.480Z,98.16
2018-03-31T03:29:52.465Z,98.21
2018-03-31T03:30:52.453Z,98.35
2018-03-31T03:31:52.432Z,98.35
2018-03-31T03:32:52.418Z,98.59
2018-03-31T03:33:52.399Z,98.21
2018-03-31T03:34:52.391Z,97.50
2018-03-31T03:35:52.370Z,98.11
2018-03-31T03:36:52.355Z,97.97
2018-03-31T03:37:52.340Z,98.25
2018-03-31T03:38:52.325Z,97.78
2018-03-31T03:39:52.311Z,97.40
2018-03-31T03:40:52.293Z,97.64
2018-03-31T03:41:52.279Z,98.02
2018-03-31T03:42:52.269Z,98.35
2018-03-31T03:43:52.255Z,98.44
2018-03-31T03:44:52.239Z,98.44
2018-03-31T03:45:52.227Z,98.16
2018-03-31T03:46:52.205Z,98.07
2018-03-31T03:47:52.187Z,98.35
2018-03-31T03:48:52.177Z,98.25
2018-03-31T03:49:52.158Z,98.92
2018-03-31T03:50:52.148Z,98.44
2018-03-31T03:51:52.137Z,98.44
2018-03-31T03:52:52.114Z,98.44
2018-03-31T03:53:52.095Z,98.73
2018-03-31T03:54:52.081Z,98.44
2018-03-31T03:55:52.075Z,98.16
2018-03-31T03:56:52.056Z,98.63
2018-03-31T03:57:52.036Z,98.44
2018-03-31T03:58:52.020Z,97.78
2018-03-31T03:59:52.015Z,97.40
2018-03-31T04:00:51.997Z,98.16
2018-03-31T04:01:51.974Z,98.54
2018-03-31T04:02:51.959Z,98.44
2018-03-31T04:03:51.946Z,98.44
2018-03-31T04:04:51.927Z,98.54
2018-03-31T04:05:51.919Z,98.82
2018-03-31T04:06:51.899Z,98.63
2018-03-31T04:07:51.882Z,97.50
2018-03-31T04:08:51.874Z,97.31
2018-03-31T04:09:51.852Z,97.31
2018-03-31T04:10:51.840Z,98.35
2018-03-31T04:11:51.829Z,97.50
2018-03-31T04:12:51.807Z,97.50
2018-03-31T04:13:51.791Z,97.59
2018-03-31T04:14:51.775Z,97.78
2018-03-31T04:15:51.767Z,98.25
2018-03-31T04:16:51.746Z,98.44
2018-03-31T04:17:51.736Z,98.07
2018-03-31T04:18:51.716Z,98.44
2018-03-31T04:19:51.700Z,97.92
2018-03-31T04:20:51.684Z,98.54
2018-03-31T04:21:51.668Z,98.25
2018-03-31T04:22:51.657Z,97.59
2018-03-31T04:23:51.649Z,98.16
2018-03-31T04:24:51.622Z,98.35
2018-03-31T04:25:51.613Z,98.16
2018-03-31T04:26:51.593Z,98.73
2018-03-31T04:27:51.581Z,98.07
2018-03-31T04:28:51.573Z,98.35
2018-03-31T04:29:51.554Z,98.44
2018-03-31T04:30:51.532Z,97.78
2018-03-31T04:31:51.525Z,98.63
2018-03-31T04:32:51.507Z,98.92
2018-03-31T04:33:51.487Z,98.63
2018-03-31T04:34:51.470Z,98.44
2018-03-31T04:35:51.458Z,98.54
2018-03-31T04:36:51.441Z,98.92
2018-03-31T04:37:51.425Z,99.20
2018-03-31T04:38:51.409Z,98.82
2018-03-31T04:39:51.396Z,99.20
2018-03-31T04:40:51.382Z,99.01
2018-03-31T04:41:51.364Z,99.11
2018-03-31T04:42:51.360Z,99.39
2018-03-31T04:43:51.335Z,99.68
2018-03-31T04:44:51.319Z,99.01
2018-03-31T04:45:51.302Z,98.92
2018-03-31T04:46:51.289Z,99.30
2018-03-31T04:47:51.278Z,99.39
2018-03-31T04:48:51.257Z,98.44
2018-03-31T04:49:51.241Z,98.35
2018-03-31T04:50:51.227Z,98.35
2018-03-31T04:51:51.211Z,98.49
2018-03-31T04:52:51.196Z,98.35
2018-03-31T04:53:51.181Z,98.44
2018-03-31T04:54:51.170Z,98.49
2018-03-31T04:55:51.155Z,98.40
2018-03-31T04:56:51.136Z,98.44
2018-03-31T04:57:51.131Z,98.07
2018-03-31T04:58:51.107Z,98.07
2018-03-31T04:59:51.089Z,98.40
2018-03-31T05:00:51.089Z,98.92
2018-03-31T05:01:51.076Z,98.82
2018-03-31T05:02:51.061Z,98.92
2018-03-31T05:03:51.037Z,98.63
2018-03-31T05:04:51.017Z,99.20
2018-03-31T05:05:51.002Z,99.39
2018-03-31T05:06:50.994Z,98.59
2018-03-31T05:07:50.980Z,98.82
2018-03-31T05:08:50.991Z,98.35
2018-03-31T05:09:50.946Z,99.01
2018-03-31T05:10:50.925Z,98.68
2018-03-31T05:11:50.917Z,98.44
2018-03-31T05:12:50.898Z,98.73
2018-03-31T05:13:50.890Z,98.35
2018-03-31T05:14:50.859Z,99.01
2018-03-31T05:15:50.848Z,99.06
2018-03-31T05:16:50.838Z,99.16
2018-03-31T05:17:50.823Z,99.26
2018-03-31T05:18:50.806Z,98.21
2018-03-31T05:19:50.790Z,98.21
2018-03-31T05:20:50.768Z,98.49
2018-03-31T05:21:50.755Z,98.59
2018-03-31T05:22:50.742Z,98.87
2018-03-31T05:23:50.725Z,98.54
2018-03-31T05:24:50.710Z,98.40
2018-03-31T05:25:50.710Z,98.63
2018-03-31T05:26:50.684Z,98.54
2018-03-31T05:27:50.663Z,98.63
2018-03-31T05:28:50.650Z,98.54
2018-03-31T05:29:50.633Z,98.25
2018-03-31T05:30:50.633Z,98.63
2018-03-31T05:31:50.603Z,98.63
2018-03-31T05:32:50.594Z,98.73
2018-03-31T05:33:50.577Z,98.73
2018-03-31T05:34:50.563Z,98.82
2018-03-31T05:35:50.575Z,98.63
2018-03-31T05:36:50.532Z,98.63
2018-03-31T05:37:50.514Z,98.44
2018-03-31T05:38:50.496Z,98.54
2018-03-31T05:39:50.482Z,98.73
2018-03-31T05:40:50.467Z,98.54
2018-03-31T05:41:50.457Z,99.44
2018-03-31T05:42:50.435Z,98.97
2018-03-31T05:43:50.426Z,98.68
2018-03-31T05:44:50.404Z,97.97
2018-03-31T05:45:50.398Z,99.01
2018-03-31T05:46:50.374Z,98.97
2018-03-31T05:47:50.360Z,98.82
2018-03-31T05:48:50.355Z,98.68
2018-03-31T05:49:50.328Z,98.54
2018-03-31T05:50:50.316Z,98.35
2018-03-31T05:51:50.298Z,98.44
2018-03-31T05:52:50.289Z,98.44
2018-03-31T05:53:50.269Z,97.50
2018-03-31T05:54:50.262Z,98.25
2018-03-31T05:55:50.238Z,98.30
2018-03-31T05:56:50.222Z,98.02
2018-03-31T05:57:50.208Z,98.49
2018-03-31T05:58:50.193Z,98.68
2018-03-31T05:59:50.185Z,98.49
2018-03-31T06:00:50.166Z,98.78
2018-03-31T06:01:50.147Z,98.49
2018-03-31T06:02:50.138Z,98.87
2018-03-31T06:03:50.126Z,99.06
2018-03-31T06:04:50.103Z,98.49
2018-03-31T06:05:50.087Z,98.68
2018-03-31T06:06:50.073Z,98.59
2018-03-31T06:07:50.063Z,98.21
2018-03-31T06:08:50.043Z,98.40
2018-03-31T06:09:50.027Z,98.02
2018-03-31T06:10:50.010Z,99.06
2018-03-31T06:11:50.058Z,97.83
2018-03-31T06:12:49.987Z,98.59
2018-03-31T06:13:49.975Z,98.30
2018-03-31T06:14:49.951Z,98.40
2018-03-31T06:15:49.937Z,98.11
2018-03-31T06:16:49.922Z,97.07
2018-03-31T06:17:49.915Z,97.26
2018-03-31T06:18:49.897Z,97.45
2018-03-31T06:19:49.877Z,97.64
2018-03-31T06:20:49.889Z,96.50
2018-03-31T06:21:49.845Z,97.36
2018-03-31T06:22:49.852Z,97.64
2018-03-31T06:23:49.823Z,98.40
2018-03-31T06:24:49.807Z,97.64
2018-03-31T06:25:49.786Z,97.36
2018-03-31T06:26:49.784Z,97.55
2018-03-31T06:27:49.765Z,97.83
2018-03-31T06:28:49.742Z,96.69
2018-03-31T06:29:49.739Z,96.78
2018-03-31T06:30:49.720Z,96.88
2018-03-31T06:31:49.701Z,97.17
2018-03-31T06:32:49.687Z,97.17
2018-03-31T06:33:49.677Z,97.83
2018-03-31T06:34:49.652Z,97.83
2018-03-31T06:35:49.637Z,96.97
2018-03-31T06:36:49.629Z,95.46
2018-03-31T06:37:49.627Z,95.27
2018-03-31T06:38:49.614Z,95.65
2018-03-31T06:39:49.585Z,96.22
2018-03-31T06:40:49.561Z,95.84
2018-03-31T06:41:49.553Z,96.78
2018-03-31T06:42:49.539Z,96.78
2018-03-31T06:43:49.551Z,96.22
2018-03-31T06:44:49.502Z,95.46
2018-03-31T06:45:49.486Z,95.65
2018-03-31T06:46:49.494Z,96.31
2018-03-31T06:47:49.458Z,96.88
2018-03-31T06:48:49.447Z,96.50
2018-03-31T06:49:49.447Z,97.36
2018-03-31T06:50:49.414Z,96.97
2018-03-31T06:51:49.401Z,96.97
2018-03-31T06:52:49.427Z,97.07
2018-03-31T06:53:49.371Z,97.74
2018-03-31T06:54:49.357Z,96.78
2018-03-31T06:55:49.340Z,96.12
2018-03-31T06:56:49.323Z,96.12
2018-03-31T06:57:49.310Z,95.84
2018-03-31T06:58:49.301Z,95.46
2018-03-31T06:59:49.296Z,94.98
2018-03-31T07:00:49.265Z,94.98
2018-03-31T07:01:49.254Z,95.51
2018-03-31T07:02:49.240Z,95.03
2018-03-31T07:03:49.221Z,94.74
2018-03-31T07:04:49.208Z,94.89
2018-03-31T07:05:49.194Z,95.31
2018-03-31T07:06:49.177Z,95.51
2018-03-31T07:07:49.164Z,95.51
2018-03-31T07:08:49.154Z,95.31
2018-03-31T07:09:49.132Z,94.84
2018-03-31T07:10:49.118Z,94.74
2018-03-31T07:11:49.105Z,94.84
2018-03-31T07:12:49.088Z,93.89
2018-03-31T07:13:49.077Z,93.70
2018-03-31T07:14:49.067Z,93.04
2018-03-31T07:15:49.053Z,91.89
2018-03-31T07:16:49.041Z,92.09
2018-03-31T07:17:49.017Z,92.09
2018-03-31T07:18:49.003Z,92.09
2018-03-31T07:19:48.998Z,92.28
2018-03-31T07:20:48.972Z,92.85
2018-03-31T07:21:48.968Z,93.80
2018-03-31T07:22:48.951Z,93.23
2018-03-31T07:23:48.929Z,94.08
2018-03-31T07:24:48.918Z,94.46
2018-03-31T07:25:48.905Z,93.80
2018-03-31T07:26:48.887Z,93.99
2018-03-31T07:27:48.878Z,93.70
2018-03-31T07:28:48.858Z,94.18
2018-03-31T07:29:48.843Z,94.18
2018-03-31T07:30:48.830Z,94.65
2018-03-31T07:31:48.817Z,94.46
2018-03-31T07:32:48.811Z,94.18
2018-03-31T07:33:48.789Z,94.08
2018-03-31T07:34:48.773Z,94.46
2018-03-31T07:35:48.764Z,94.37
2018-03-31T07:36:48.740Z,91.99
2018-03-31T07:37:48.727Z,91.71
2018-03-31T07:38:48.716Z,91.52
2018-03-31T07:39:48.712Z,91.52
2018-03-31T07:40:48.685Z,91.33
2018-03-31T07:41:48.671Z,91.99
2018-03-31T07:42:48.658Z,92.18
2018-03-31T07:43:48.645Z,92.47
2018-03-31T07:44:48.633Z,93.13
2018-03-31T07:45:48.617Z,93.99
2018-03-31T07:46:48.600Z,93.60
2018-03-31T07:47:48.584Z,93.04
2018-03-31T07:48:48.570Z,91.52
2018-03-31T07:49:48.562Z,90.80
2018-03-31T07:50:48.542Z,91.66
2018-03-31T07:51:48.528Z,91.47
2018-03-31T07:52:48.522Z,91.19
2018-03-31T07:53:48.503Z,91.66
2018-03-31T07:54:48.488Z,91.28
2018-03-31T07:55:48.472Z,90.33
2018-03-31T07:56:48.465Z,90.90
2018-03-31T07:57:48.452Z,91.38
2018-03-31T07:58:48.432Z,90.05
2018-03-31T07:59:48.420Z,89.67
2018-03-31T08:00:48.403Z,90.33
2018-03-31T08:01:48.386Z,91.19
2018-03-31T08:02:48.376Z,90.14
2018-03-31T08:03:48.364Z,89.67
2018-03-31T08:04:48.352Z,89.19
2018-03-31T08:05:48.339Z,89.19
2018-03-31T08:06:48.318Z,89.09
2018-03-31T08:07:48.313Z,89.86
2018-03-31T08:08:48.298Z,87.48
2018-03-31T08:09:48.282Z,87.38
2018-03-31T08:10:48.262Z,88.24
2018-03-31T08:11:48.247Z,87.29
2018-03-31T08:12:48.236Z,87.38
2018-03-31T08:13:48.218Z,88.53
2018-03-31T08:14:48.205Z,89.47
2018-03-31T08:15:48.197Z,89.28
2018-03-31T08:16:48.188Z,89.86
2018-03-31T08:17:48.165Z,89.28
2018-03-31T08:18:48.157Z,91.47
2018-03-31T08:19:48.139Z,90.99
2018-03-31T08:20:48.126Z,89.86
2018-03-31T08:21:48.115Z,90.00
2018-03-31T08:22:48.100Z,88.81
2018-03-31T08:23:48.099Z,88.38
2018-03-31T08:24:48.070Z,88.76
2018-03-31T08:25:48.054Z,88.76
2018-03-31T08:26:48.040Z,87.81
2018-03-31T08:27:48.033Z,86.47
2018-03-31T08:28:48.021Z,85.72
2018-03-31T08:29:48.000Z,85.91
2018-03-31T08:30:47.986Z,86.76
2018-03-31T08:31:47.971Z,87.43
2018-03-31T08:32:47.957Z,88.38
2018-03-31T08:33:47.942Z,87.43
2018-03-31T08:34:47.942Z,87.43
2018-03-31T08:35:47.918Z,89.33
2018-03-31T08:36:47.903Z,89.33
2018-03-31T08:37:47.888Z,88.85
2018-03-31T08:38:47.877Z,87.34
2018-03-31T08:39:47.863Z,87.05
2018-03-31T08:40:47.847Z,87.43
2018-03-31T08:41:47.879Z,87.71
2018-03-31T08:42:47.826Z,88.09
2018-03-31T08:43:47.809Z,87.43
2018-03-31T08:44:47.794Z,87.43
2018-03-31T08:45:47.779Z,86.95
2018-03-31T08:46:47.772Z,87.05
2018-03-31T08:47:47.753Z,87.24
2018-03-31T08:48:47.744Z,87.34
2018-03-31T08:49:47.726Z,87.34
2018-03-31T08:50:47.719Z,87.43
2018-03-31T08:51:47.700Z,87.34
2018-03-31T08:52:47.684Z,88.28
2018-03-31T08:53:47.678Z,88.38
2018-03-31T08:54:47.664Z,88.47
2018-03-31T08:55:47.652Z,88.19
2018-03-31T08:56:47.632Z,88.57
2018-03-31T08:57:47.625Z,88.47
2018-03-31T08:58:47.604Z,88.67
2018-03-31T08:59:47.591Z,87.34
2018-03-31T09:00:47.576Z,87.24
2018-03-31T09:01:47.562Z,86.19
2018-03-31T09:02:47.555Z,86.38
2018-03-31T09:03:47.537Z,85.81
2018-03-31T09:04:47.521Z,86.24
2018-03-31T09:05:47.508Z,86.10
2018-03-31T09:06:47.493Z,86.14
2018-03-31T09:07:47.481Z,84.52
2018-03-31T09:08:47.475Z,84.62
2018-03-31T09:09:47.455Z,84.43
2018-03-31T09:10:47.443Z,84.91
2018-03-31T09:11:47.430Z,83.82
2018-03-31T09:12:47.416Z,84.58
2018-03-31T09:13:47.404Z,85.34
2018-03-31T09:14:47.440Z,85.72
2018-03-31T09:15:47.376Z,85.91
2018-03-31T09:16:47.376Z,85.81
2018-03-31T09:17:47.348Z,85.43
2018-03-31T09:18:47.343Z,85.91
2018-03-31T09:19:47.323Z,85.91
2018-03-31T09:20:47.309Z,85.47
2018-03-31T09:21:47.296Z,86.14
2018-03-31T09:22:47.284Z,86.71
2018-03-31T09:23:47.276Z,86.67
2018-03-31T09:24:47.257Z,85.57
2018-03-31T09:25:47.252Z,84.81
2018-03-31T09:26:47.233Z,84.72
2018-03-31T09:27:47.220Z,84.81
2018-03-31T09:28:47.242Z,83.95
2018-03-31T09:29:47.208Z,84.14
2018-03-31T09:30:47.207Z,84.72
2018-03-31T09:31:47.177Z,84.91
2018-03-31T09:32:47.156Z,84.81
2018-03-31T09:33:47.145Z,84.81
2018-03-31T09:34:47.126Z,84.05
2018-03-31T09:35:47.122Z,84.33
2018-03-31T09:36:47.100Z,84.14
2018-03-31T09:37:47.090Z,83.10
2018-03-31T09:38:47.083Z,83.10
2018-03-31T09:39:47.076Z,83.29
2018-03-31T09:40:47.048Z,83.67
2018-03-31T09:41:47.038Z,84.72
2018-03-31T09:42:47.030Z,84.33
2018-03-31T09:43:47.016Z,84.14
2018-03-31T09:44:46.998Z,85.95
2018-03-31T09:45:46.992Z,86.33
2018-03-31T09:46:47.034Z,86.05
2018-03-31T09:47:46.976Z,85.86
2018-03-31T09:48:46.955Z,85.86
2018-03-31T09:49:46.932Z,85.33
2018-03-31T09:50:46.922Z,84.52
2018-03-31T09:51:46.915Z,85.19
2018-03-31T09:52:46.895Z,85.47
2018-03-31T09:53:46.883Z,84.81
2018-03-31T09:54:46.869Z,85.10
2018-03-31T09:55:46.855Z,85.38
2018-03-31T09:56:46.845Z,85.76
2018-03-31T09:57:46.829Z,86.14
2018-03-31T09:58:46.818Z,85.95
2018-03-31T09:59:46.812Z,86.43
2018-03-31T10:00:46.792Z,86.14
2018-03-31T10:01:46.784Z,85.95
2018-03-31T10:02:46.768Z,85.38
2018-03-31T10:03:46.753Z,84.91
2018-03-31T10:04:46.740Z,85.76
2018-03-31T10:05:46.729Z,86.24
2018-03-31T10:06:46.716Z,86.14
2018-03-31T10:07:46.702Z,86.43
2018-03-31T10:08:46.689Z,86.43
2018-03-31T10:09:46.677Z,87.57
2018-03-31T10:10:46.665Z,87.95
2018-03-31T10:11:46.658Z,88.42
2018-03-31T10:12:46.640Z,85.95
2018-03-31T10:13:46.628Z,84.81
2018-03-31T10:14:46.621Z,85.38
2018-03-31T10:15:46.606Z,85.95
2018-03-31T10:16:46.589Z,85.95
2018-03-31T10:17:46.582Z,85.38
2018-03-31T10:18:46.562Z,84.62
2018-03-31T10:19:46.553Z,85.52
2018-03-31T10:20:46.535Z,86.05
2018-03-31T10:21:46.521Z,85.57
2018-03-31T10:22:46.513Z,85.24
2018-03-31T10:23:46.499Z,85.99
2018-03-31T10:24:46.486Z,84.85
2018-03-31T10:25:46.486Z,84.38
2018-03-31T10:26:46.470Z,84.38
2018-03-31T10:27:46.452Z,85.33
2018-03-31T10:28:46.434Z,85.42
2018-03-31T10:29:46.425Z,84.76
2018-03-31T10:30:46.408Z,84.56
2018-03-31T10:31:46.397Z,83.90
2018-03-31T10:32:46.383Z,84.47
2018-03-31T10:33:46.376Z,83.04
2018-03-31T10:34:46.360Z,83.04
2018-03-31T10:35:46.354Z,81.81
2018-03-31T10:36:46.341Z,81.43
2018-03-31T10:37:46.322Z,81.85
2018-03-31T10:38:46.311Z,82.51
2018-03-31T10:39:46.298Z,83.47
2018-03-31T10:40:46.296Z,83.94
2018-03-31T10:41:46.304Z,83.09
2018-03-31T10:42:46.263Z,82.80
2018-03-31T10:43:46.259Z,82.80
2018-03-31T10:44:46.251Z,83.75
2018-03-31T10:45:46.238Z,83.18
2018-03-31T10:46:46.213Z,84.23
2018-03-31T10:47:46.202Z,83.56
2018-03-31T10:48:46.188Z,83.18
2018-03-31T10:49:46.176Z,82.80
2018-03-31T10:50:46.165Z,82.99
2018-03-31T10:51:46.153Z,81.95
2018-03-31T10:52:46.140Z,81.76
2018-03-31T10:53:46.135Z,82.51
2018-03-31T10:54:46.119Z,81.85
2018-03-31T10:55:46.113Z,81.37
2018-03-31T10:56:46.094Z,80.99
2018-03-31T10:57:46.090Z,80.52
2018-03-31T10:58:46.071Z,81.66
2018-03-31T10:59:46.060Z,80.71
2018-03-31T11:00:46.045Z,81.23
2018-03-31T11:01:46.032Z,81.85
2018-03-31T11:02:46.023Z,81.85
2018-03-31T11:03:46.011Z,81.89
2018-03-31T11:04:45.996Z,81.47
2018-03-31T11:05:45.988Z,81.37
2018-03-31T11:06:45.975Z,82.32
2018-03-31T11:07:45.964Z,81.85
2018-03-31T11:08:45.956Z,81.23
2018-03-31T11:09:45.939Z,80.75
2018-03-31T11:10:45.938Z,81.23
2018-03-31T11:11:45.922Z,81.98
2018-03-31T11:12:45.903Z,80.94
2018-03-31T11:13:45.897Z,82.18
2018-03-31T11:14:45.883Z,82.37
2018-03-31T11:15:45.869Z,81.60
2018-03-31T11:16:45.858Z,81.03
2018-03-31T11:17:45.847Z,80.75
2018-03-31T11:18:45.843Z,80.08
2018-03-31T11:19:45.826Z,80.65
2018-03-31T11:20:45.810Z,80.36
2018-03-31T11:21:45.800Z,79.99
2018-03-31T11:22:45.801Z,80.27
2018-03-31T11:23:45.778Z,80.80
2018-03-31T11:24:45.763Z,81.41
2018-03-31T11:25:45.754Z,81.41
2018-03-31T11:26:45.754Z,81.70
2018-03-31T11:27:45.731Z,81.51
2018-03-31T11:28:45.720Z,81.51
2018-03-31T11:29:45.715Z,80.23
2018-03-31T11:30:45.695Z,80.84
2018-03-31T11:31:45.684Z,81.51
2018-03-31T11:32:45.671Z,81.41
2018-03-31T11:33:45.670Z,81.89
2018-03-31T11:34:45.657Z,80.94
2018-03-31T11:35:45.652Z,80.75
2018-03-31T11:36:45.625Z,81.23
2018-03-31T11:37:45.618Z,81.41
2018-03-31T11:38:45.606Z,81.41
2018-03-31T11:39:45.597Z,81.51
2018-03-31T11:40:45.582Z,80.84
2018-03-31T11:41:45.568Z,80.27
2018-03-31T11:42:45.558Z,79.60
2018-03-31T11:43:45.549Z,79.70
2018-03-31T11:44:45.553Z,79.80
2018-03-31T11:45:45.526Z,79.51
2018-03-31T11:46:45.511Z,79.89
2018-03-31T11:47:45.501Z,79.70
2018-03-31T11:48:45.491Z,78.85
2018-03-31T11:49:45.480Z,79.51
2018-03-31T11:50:45.480Z,79.70
2018-03-31T11:51:45.455Z,79.51
2018-03-31T11:52:45.447Z,80.27
2018-03-31T11:53:45.435Z,79.51
2018-03-31T11:54:45.423Z,80.36
2018-03-31T11:55:45.412Z,79.70
2018-03-31T11:56:45.399Z,79.80
2018-03-31T11:57:45.387Z,79.60
2018-03-31T11:58:45.378Z,79.07
2018-03-31T11:59:45.367Z,79.32
2018-03-31T12:00:45.361Z,79.41
2018-03-31T12:01:45.348Z,79.32
2018-03-31T12:02:45.336Z,78.46
2018-03-31T12:03:45.320Z,78.85
2018-03-31T12:04:45.316Z,78.37
2018-03-31T12:05:45.297Z,78.17
2018-03-31T12:06:45.287Z,79.03
2018-03-31T12:07:45.276Z,79.32
2018-03-31T12:08:45.271Z,78.41
2018-03-31T12:09:45.261Z,79.22
2018-03-31T12:10:45.252Z,79.07
2018-03-31T12:11:45.231Z,78.78
2018-03-31T12:12:45.220Z,79.27
2018-03-31T12:13:45.211Z,79.03
2018-03-31T12:14:45.203Z,79.13
2018-03-31T12:15:45.191Z,78.75
2018-03-31T12:16:45.176Z,79.46
2018-03-31T12:17:45.167Z,79.03
2018-03-31T12:18:45.154Z,79.22
2018-03-31T12:19:45.142Z,77.61
2018-03-31T12:20:45.131Z,77.70
2018-03-31T12:21:45.126Z,78.17
2018-03-31T12:22:45.109Z,77.98
2018-03-31T12:23:45.103Z,78.56
2018-03-31T12:24:45.093Z,78.17
2018-03-31T12:25:45.075Z,77.98
2018-03-31T12:26:45.066Z,78.08
2018-03-31T12:27:45.053Z,77.89
2018-03-31T12:28:45.048Z,79.32
2018-03-31T12:29:45.030Z,79.80
2018-03-31T12:30:45.027Z,79.89
2018-03-31T12:31:45.008Z,79.80
2018-03-31T12:32:45.000Z,79.41
2018-03-31T12:33:44.985Z,79.70
2018-03-31T12:34:45.025Z,80.08
2018-03-31T12:35:44.964Z,80.75
2018-03-31T12:36:45.012Z,80.65
2018-03-31T12:37:44.939Z,80.18
2018-03-31T12:38:44.929Z,80.36
2018-03-31T12:39:44.921Z,79.99
2018-03-31T12:40:44.906Z,80.55
2018-03-31T12:41:44.893Z,80.84
2018-03-31T12:42:44.884Z,80.94
2018-03-31T12:43:44.875Z,80.94
2018-03-31T12:44:44.925Z,80.36
2018-03-31T12:45:44.854Z,82.08
2018-03-31T12:46:44.836Z,82.56
2018-03-31T12:47:44.826Z,82.27
2018-03-31T12:48:44.823Z,82.46
2018-03-31T12:49:44.804Z,82.75
2018-03-31T12:50:44.794Z,82.65
2018-03-31T12:51:44.841Z,81.89
2018-03-31T12:52:44.768Z,81.98